Time;durP1;ratioP1;P1;durP2;ratioP2;P2;SDS_P1;SDS_P2;PMS_P1;PMS_P2;Temp;Humidity;BMP_temperature;BMP_pressure;BME280_temperature;BME280_humidity;BME280_pressure;Samples;Min_cycle;Max_cycle;Signal;HPM_P1;HPM_P2
2023/10/25 00:00:31;;;;;;;52.00;26.20;;;;;;;12.45;100.00;99209.47;673431;1272;139349;-83
2023/10/25 00:15:54;;;;;;;49.20;25.80;;;;;;;12.40;100.00;99183.66;673656;1260;138967;-83
2023/10/25 00:30:57;;;;;;;47.80;25.70;;;;;;;12.45;100.00;99155.20;673412;1263;139592;-83
2023/10/25 00:46:16;;;;;;;50.70;25.30;;;;;;;12.38;100.00;99134.40;674358;1262;139233;-83
2023/10/25 01:01:23;;;;;;;43.90;24.60;;;;;;;12.32;100.00;99113.70;673607;1272;139070;-85
2023/10/25 01:16:33;;;;;;;41.60;23.60;;;;;;;12.33;100.00;99093.23;673430;1260;139273;-84
2023/10/25 01:31:44;;;;;;;44.70;22.70;;;;;;;12.32;100.00;99070.20;676135;1262;139206;-85
2023/10/25 01:46:47;;;;;;;35.90;20.80;;;;;;;12.29;100.00;99044.84;674545;1263;139218;-84
2023/10/25 02:01:51;;;;;;;36.40;21.00;;;;;;;12.27;100.00;99021.70;674274;1262;139307;-84
2023/10/25 02:16:54;;;;;;;38.10;22.70;;;;;;;12.31;100.00;99008.42;674163;1258;138694;-84
2023/10/25 02:31:58;;;;;;;39.60;21.40;;;;;;;12.30;100.00;98995.98;673626;1262;138857;-85
2023/10/25 02:47:03;;;;;;;39.70;21.70;;;;;;;12.28;100.00;98986.57;673725;1274;139254;-84
2023/10/25 03:02:07;;;;;;;40.50;20.70;;;;;;;12.26;100.00;98983.13;673011;1265;139064;-84
2023/10/25 03:17:10;;;;;;;37.60;19.70;;;;;;;12.26;100.00;98979.02;672853;1275;139139;-84
2023/10/25 03:32:13;;;;;;;39.80;21.80;;;;;;;12.29;100.00;98969.11;674028;1260;138976;-83
2023/10/25 03:47:17;;;;;;;33.00;19.70;;;;;;;12.26;100.00;98947.84;674384;1256;139476;-83
2023/10/25 04:02:20;;;;;;;32.80;19.30;;;;;;;12.20;100.00;98932.45;674286;1260;172012;-83
2023/10/25 04:17:23;;;;;;;35.30;20.30;;;;;;;12.20;100.00;98916.34;674427;1260;139171;-84
2023/10/25 04:43:18;;;;;;;25.10;14.60;;;;;;;12.17;100.00;98891.59;653967;1304;545006;-82
2023/10/25 04:58:24;;;;;;;21.70;14.90;;;;;;;12.13;100.00;98885.59;669331;1272;138733;-84
2023/10/25 05:13:28;;;;;;;28.80;17.10;;;;;;;12.11;100.00;98876.46;669570;1273;138283;-82
2023/10/25 05:28:32;;;;;;;64.00;34.90;;;;;;;12.09;100.00;98873.44;669236;1275;138438;-83
2023/10/25 05:43:38;;;;;;;56.10;35.50;;;;;;;12.07;100.00;98861.39;668704;1275;138846;-82
2023/10/25 05:58:42;;;;;;;157.00;66.60;;;;;;;12.12;100.00;98869.52;668562;1275;138541;-83
2023/10/25 06:13:45;;;;;;;39.70;24.90;;;;;;;12.07;100.00;98872.60;668106;1272;138753;-83
2023/10/25 06:28:49;;;;;;;41.50;25.70;;;;;;;12.00;100.00;98862.13;673008;1285;139142;-84
2023/10/25 06:43:53;;;;;;;26.80;16.40;;;;;;;12.00;100.00;98850.65;670715;1273;138375;-83
2023/10/25 06:58:57;;;;;;;20.10;12.00;;;;;;;12.26;100.00;98854.75;670521;1283;138555;-84
2023/10/25 07:27:37;;;;;;;28.60;14.00;;;;;;;12.28;100.00;98848.36;656837;1301;545429;-84
2023/10/25 07:42:41;;;;;;;25.00;12.00;;;;;;;12.03;100.00;98845.20;666483;1277;138653;-82
2023/10/25 07:57:44;;;;;;;14.70;9.20;;;;;;;12.13;100.00;98840.54;667170;1277;139189;-83
2023/10/25 08:13:10;;;;;;;26.30;12.40;;;;;;;12.07;100.00;98842.95;672808;1268;139110;-86
2023/10/25 08:28:43;;;;;;;18.20;9.40;;;;;;;11.75;100.00;98838.90;674945;1265;138815;-85
2023/10/25 08:43:52;;;;;;;20.10;12.20;;;;;;;11.77;100.00;98836.55;671574;1264;138521;-87
2023/10/25 08:58:59;;;;;;;30.90;17.90;;;;;;;11.84;100.00;98842.10;677203;1266;138657;-85
2023/10/25 09:14:03;;;;;;;36.20;21.20;;;;;;;11.86;100.00;98832.27;674001;1265;138845;-86
2023/10/25 09:29:09;;;;;;;15.70;10.80;;;;;;;11.99;100.00;98836.24;672603;1266;138747;-86
2023/10/25 09:44:18;;;;;;;14.70;8.30;;;;;;;11.95;100.00;98827.40;675404;1264;140981;-86
2023/10/25 09:59:22;;;;;;;30.00;17.30;;;;;;;11.90;100.00;98820.73;670939;1265;139349;-84
2023/10/25 10:14:38;;;;;;;17.40;10.10;;;;;;;11.95;100.00;98817.41;671637;1266;139387;-84
2023/10/25 10:29:45;;;;;;;20.60;13.10;;;;;;;12.05;100.00;98813.80;672521;1266;139888;-86
2023/10/25 10:44:48;;;;;;;20.30;13.00;;;;;;;12.19;100.00;98811.74;669333;1266;138946;-87
2023/10/25 10:59:55;;;;;;;12.50;7.00;;;;;;;12.12;100.00;98801.85;671734;1262;139076;-85
2023/10/25 11:15:04;;;;;;;18.30;11.00;;;;;;;12.09;100.00;98788.59;675624;1263;139457;-85
2023/10/25 11:30:08;;;;;;;32.10;18.30;;;;;;;12.19;100.00;98782.27;676102;1264;138699;-86
2023/10/25 11:45:12;;;;;;;33.30;16.70;;;;;;;12.17;100.00;98788.58;670686;1265;138529;-85
2023/10/25 12:00:16;;;;;;;26.80;14.20;;;;;;;12.18;100.00;98793.88;670134;1265;138684;-84
2023/10/25 12:15:19;;;;;;;56.20;31.90;;;;;;;12.13;100.00;98802.77;673948;1265;139581;-83
2023/10/25 12:30:23;;;;;;;40.90;21.50;;;;;;;12.11;100.00;98797.23;669891;1266;138942;-83
2023/10/25 12:45:28;;;;;;;33.30;17.10;;;;;;;12.11;100.00;98787.95;671770;1265;139696;-81
2023/10/25 13:00:33;;;;;;;26.30;16.50;;;;;;;12.37;100.00;98792.42;675872;1262;138467;-82
2023/10/25 13:15:37;;;;;;;20.50;11.90;;;;;;;12.35;100.00;98799.20;673939;1262;139350;-82
2023/10/25 13:30:40;;;;;;;30.00;16.40;;;;;;;12.06;100.00;98804.41;673779;1260;138723;-83
2023/10/25 13:45:45;;;;;;;60.30;38.60;;;;;;;12.24;100.00;98814.21;675668;1265;139692;-81
2023/10/25 14:00:51;;;;;;;37.40;23.80;;;;;;;12.28;100.00;98815.58;676238;1263;142559;-81
2023/10/25 14:15:55;;;;;;;27.40;17.00;;;;;;;12.20;100.00;98809.77;673634;1262;139826;-81
2023/10/25 14:30:58;;;;;;;50.00;30.80;;;;;;;12.15;100.00;98817.45;676132;1262;138853;-81
2023/10/25 14:46:02;;;;;;;183.60;80.60;;;;;;;12.07;100.00;98814.25;674511;1263;138912;-82
2023/10/25 15:01:07;;;;;;;101.30;54.00;;;;;;;12.05;100.00;98807.11;676241;1263;138019;-84
2023/10/25 15:16:11;;;;;;;74.20;38.40;;;;;;;11.82;100.00;98786.97;671958;1263;139691;-83
2023/10/25 15:31:20;;;;;;;100.50;49.00;;;;;;;11.60;100.00;98755.70;675292;1264;139065;-83
2023/10/25 15:46:27;;;;;;;950.30;428.20;;;;;;;11.75;100.00;98740.83;672607;1263;139129;-83
2023/10/25 16:01:31;;;;;;;269.40;111.60;;;;;;;11.56;100.00;98755.64;674054;1263;139308;-83
2023/10/25 16:16:54;;;;;;;81.50;39.00;;;;;;;11.57;100.00;98764.67;672435;1263;139068;-84
2023/10/25 16:31:58;;;;;;;79.10;40.50;;;;;;;11.56;100.00;98766.38;673932;1263;138885;-83
2023/10/25 16:47:05;;;;;;;209.80;80.50;;;;;;;11.57;100.00;98759.23;673444;1262;137841;-85
2023/10/25 17:02:09;;;;;;;135.80;56.20;;;;;;;11.48;100.00;98744.36;677671;1263;140484;-83
2023/10/25 17:17:13;;;;;;;113.80;48.50;;;;;;;11.43;100.00;98750.10;675924;1271;139092;-83
2023/10/25 17:32:16;;;;;;;114.10;50.80;;;;;;;11.44;100.00;98751.77;675854;1262;139790;-85
2023/10/25 17:47:21;;;;;;;48.70;24.40;;;;;;;11.45;100.00;98751.98;675236;1262;140013;-84
2023/10/25 18:02:25;;;;;;;72.60;39.10;;;;;;;11.41;100.00;98740.27;674267;1260;139356;-85
2023/10/25 18:17:30;;;;;;;73.90;37.60;;;;;;;11.39;100.00;98740.67;673407;1262;139523;-85
2023/10/25 18:32:37;;;;;;;56.70;27.90;;;;;;;11.37;100.00;98735.86;673351;1263;137738;-85
2023/10/25 18:47:42;;;;;;;74.60;37.60;;;;;;;11.38;100.00;98732.05;674182;1274;139537;-85
2023/10/25 19:02:49;;;;;;;87.90;40.60;;;;;;;11.33;100.00;98743.05;673135;1276;139045;-85
2023/10/25 19:17:52;;;;;;;55.20;28.90;;;;;;;11.38;100.00;98746.75;673834;1261;138941;-85
2023/10/25 19:32:55;;;;;;;40.40;22.30;;;;;;;11.37;100.00;98748.19;673109;1273;176300;-85
2023/10/25 19:47:59;;;;;;;49.80;24.80;;;;;;;11.35;100.00;98750.94;673336;1273;139802;-86
2023/10/25 20:03:03;;;;;;;40.80;19.60;;;;;;;11.33;100.00;98744.10;673535;1275;139341;-84
2023/10/25 20:18:06;;;;;;;61.70;31.30;;;;;;;11.34;100.00;98723.52;673412;1271;140305;-85
2023/10/25 20:33:10;;;;;;;62.60;34.10;;;;;;;11.34;100.00;98717.27;674847;1263;140301;-85
2023/10/25 20:48:13;;;;;;;55.70;21.70;;;;;;;11.34;100.00;98723.74;673803;1276;139414;-85
2023/10/25 21:03:16;;;;;;;54.30;23.30;;;;;;;11.32;100.00;98717.95;674583;1266;139125;-84
2023/10/25 21:18:21;;;;;;;33.20;18.60;;;;;;;11.35;100.00;98716.29;672710;1263;139434;-84
2023/10/25 21:33:25;;;;;;;60.40;28.80;;;;;;;11.39;100.00;98709.98;675642;1261;139893;-84
